sensor_id;sensor_type;location;lat;lon;timestamp;temperature;humidity
22623;DHT22;11478;51.094;7.030;2023-11-18T00:00:20;3.90;99.90
22623;DHT22;11478;51.094;7.030;2023-11-18T00:02:46;3.90;99.90
22623;DHT22;11478;51.094;7.030;2023-11-18T00:05:12;3.90;99.90
22623;DHT22;11478;51.094;7.030;2023-11-18T00:07:39;3.80;99.90
22623;DHT22;11478;51.094;7.030;2023-11-18T00:10:07;3.90;99.90
22623;DHT22;11478;51.094;7.030;2023-11-18T00:12:34;3.90;99.90
22623;DHT22;11478;51.094;7.030;2023-11-18T00:15:02;3.80;99.90
22623;DHT22;11478;51.094;7.030;2023-11-18T00:17:30;3.80;99.90
22623;DHT22;11478;51.094;7.030;2023-11-18T00:19:56;3.80;99.90
22623;DHT22;11478;51.094;7.030;2023-11-18T00:22:22;3.80;99.90
22623;DHT22;11478;51.094;7.030;2023-11-18T00:24:57;3.80;99.90
22623;DHT22;11478;51.094;7.030;2023-11-18T00:27:23;3.80;99.90
22623;DHT22;11478;51.094;7.030;2023-11-18T00:29:56;3.80;99.90
22623;DHT22;11478;51.094;7.030;2023-11-18T00:32:22;3.80;99.90
22623;DHT22;11478;51.094;7.030;2023-11-18T00:35:01;3.80;99.90
22623;DHT22;11478;51.094;7.030;2023-11-18T00:37:30;3.70;99.90
22623;DHT22;11478;51.094;7.030;2023-11-18T00:40:04;3.70;99.90
22623;DHT22;11478;51.094;7.030;2023-11-18T00:42:30;3.70;99.90
22623;DHT22;11478;51.094;7.030;2023-11-18T00:44:56;3.70;99.90
22623;DHT22;11478;51.094;7.030;2023-11-18T00:47:30;3.70;99.90
22623;DHT22;11478;51.094;7.030;2023-11-18T00:49:56;3.70;99.90
22623;DHT22;11478;51.094;7.030;2023-11-18T00:52:28;3.70;99.90
22623;DHT22;11478;51.094;7.030;2023-11-18T00:54:54;3.70;99.90
22623;DHT22;11478;51.094;7.030;2023-11-18T00:57:24;3.70;99.90
22623;DHT22;11478;51.094;7.030;2023-11-18T00:59:50;3.60;99.90
22623;DHT22;11478;51.094;7.030;2023-11-18T01:02:35;3.60;99.90
22623;DHT22;11478;51.094;7.030;2023-11-18T01:05:00;3.60;99.90
22623;DHT22;11478;51.094;7.030;2023-11-18T01:07:40;3.60;99.90
22623;DHT22;11478;51.094;7.030;2023-11-18T01:10:07;3.50;99.90
22623;DHT22;11478;51.094;7.030;2023-11-18T01:12:39;3.50;99.90
22623;DHT22;11478;51.094;7.030;2023-11-18T01:15:05;3.50;99.90
22623;DHT22;11478;51.094;7.030;2023-11-18T01:17:56;3.40;99.90
22623;DHT22;11478;51.094;7.030;2023-11-18T01:20:22;3.40;99.90
22623;DHT22;11478;51.094;7.030;2023-11-18T01:22:52;3.40;99.90
22623;DHT22;11478;51.094;7.030;2023-11-18T01:25:18;3.40;99.90
22623;DHT22;11478;51.094;7.030;2023-11-18T01:27:51;3.40;99.90
22623;DHT22;11478;51.094;7.030;2023-11-18T01:30:17;3.40;99.90
22623;DHT22;11478;51.094;7.030;2023-11-18T01:32:49;3.40;99.90
22623;DHT22;11478;51.094;7.030;2023-11-18T01:35:14;3.40;99.90
22623;DHT22;11478;51.094;7.030;2023-11-18T01:37:40;3.40;99.90
22623;DHT22;11478;51.094;7.030;2023-11-18T01:40:07;3.50;99.90
22623;DHT22;11478;51.094;7.030;2023-11-18T01:42:36;3.50;99.90
22623;DHT22;11478;51.094;7.030;2023-11-18T01:45:02;3.50;99.90
22623;DHT22;11478;51.094;7.030;2023-11-18T01:47:31;3.60;99.90
22623;DHT22;11478;51.094;7.030;2023-11-18T01:49:59;3.60;99.90
22623;DHT22;11478;51.094;7.030;2023-11-18T01:52:27;3.60;99.90
22623;DHT22;11478;51.094;7.030;2023-11-18T01:54:56;3.70;99.90
22623;DHT22;11478;51.094;7.030;2023-11-18T01:57:27;3.70;99.90
22623;DHT22;11478;51.094;7.030;2023-11-18T01:59:53;3.70;99.90
22623;DHT22;11478;51.094;7.030;2023-11-18T02:02:42;3.80;99.90
22623;DHT22;11478;51.094;7.030;2023-11-18T02:05:09;3.70;99.90
22623;DHT22;11478;51.094;7.030;2023-11-18T02:07:39;3.70;99.90
22623;DHT22;11478;51.094;7.030;2023-11-18T02:10:06;3.80;99.90
22623;DHT22;11478;51.094;7.030;2023-11-18T02:13:03;3.80;99.90
22623;DHT22;11478;51.094;7.030;2023-11-18T02:15:34;3.80;99.90
22623;DHT22;11478;51.094;7.030;2023-11-18T02:18:04;3.80;99.90
22623;DHT22;11478;51.094;7.030;2023-11-18T02:20:32;3.80;99.90
22623;DHT22;11478;51.094;7.030;2023-11-18T02:23:17;3.80;99.90
22623;DHT22;11478;51.094;7.030;2023-11-18T02:25:44;3.80;99.90
22623;DHT22;11478;51.094;7.030;2023-11-18T02:28:20;3.80;99.90
22623;DHT22;11478;51.094;7.030;2023-11-18T02:30:46;3.80;99.90
22623;DHT22;11478;51.094;7.030;2023-11-18T02:33:40;3.80;99.90
22623;DHT22;11478;51.094;7.030;2023-11-18T02:36:15;3.80;99.90
22623;DHT22;11478;51.094;7.030;2023-11-18T02:39:06;3.80;99.90
22623;DHT22;11478;51.094;7.030;2023-11-18T02:41:42;3.80;99.90
22623;DHT22;11478;51.094;7.030;2023-11-18T02:44:11;3.80;99.90
22623;DHT22;11478;51.094;7.030;2023-11-18T02:46:43;3.80;99.90
22623;DHT22;11478;51.094;7.030;2023-11-18T02:49:10;3.80;99.90
22623;DHT22;11478;51.094;7.030;2023-11-18T02:51:38;3.80;99.90
22623;DHT22;11478;51.094;7.030;2023-11-18T02:54:09;3.80;99.90
22623;DHT22;11478;51.094;7.030;2023-11-18T02:56:43;3.80;99.90
22623;DHT22;11478;51.094;7.030;2023-11-18T02:59:08;3.80;99.90
22623;DHT22;11478;51.094;7.030;2023-11-18T03:01:37;3.80;99.90
22623;DHT22;11478;51.094;7.030;2023-11-18T03:04:10;3.80;99.90
22623;DHT22;11478;51.094;7.030;2023-11-18T03:06:36;3.80;99.90
22623;DHT22;11478;51.094;7.030;2023-11-18T03:09:03;3.80;99.90
22623;DHT22;11478;51.094;7.030;2023-11-18T03:11:33;3.80;99.90
22623;DHT22;11478;51.094;7.030;2023-11-18T03:14:01;3.80;99.90
22623;DHT22;11478;51.094;7.030;2023-11-18T03:16:27;3.80;99.90
22623;DHT22;11478;51.094;7.030;2023-11-18T03:18:54;3.80;99.90
22623;DHT22;11478;51.094;7.030;2023-11-18T03:21:20;3.80;99.90
22623;DHT22;11478;51.094;7.030;2023-11-18T03:23:59;3.90;99.90
22623;DHT22;11478;51.094;7.030;2023-11-18T03:26:25;3.90;99.90
22623;DHT22;11478;51.094;7.030;2023-11-18T03:28:56;3.90;99.90
22623;DHT22;11478;51.094;7.030;2023-11-18T03:31:22;3.90;99.90
22623;DHT22;11478;51.094;7.030;2023-11-18T03:33:49;3.90;99.90
22623;DHT22;11478;51.094;7.030;2023-11-18T03:36:15;3.90;99.90
22623;DHT22;11478;51.094;7.030;2023-11-18T03:38:48;3.90;99.90
22623;DHT22;11478;51.094;7.030;2023-11-18T03:41:15;3.80;99.90
22623;DHT22;11478;51.094;7.030;2023-11-18T03:43:43;3.80;99.90
22623;DHT22;11478;51.094;7.030;2023-11-18T03:46:08;3.80;99.90
22623;DHT22;11478;51.094;7.030;2023-11-18T03:48:36;3.80;99.90
22623;DHT22;11478;51.094;7.030;2023-11-18T03:51:02;3.80;99.90
22623;DHT22;11478;51.094;7.030;2023-11-18T03:53:31;3.80;99.90
22623;DHT22;11478;51.094;7.030;2023-11-18T03:55:59;3.80;99.90
22623;DHT22;11478;51.094;7.030;2023-11-18T03:58:28;3.80;99.90
22623;DHT22;11478;51.094;7.030;2023-11-18T04:00:54;3.90;99.90
22623;DHT22;11478;51.094;7.030;2023-11-18T04:03:20;3.80;99.90
22623;DHT22;11478;51.094;7.030;2023-11-18T04:05:45;3.80;99.90
22623;DHT22;11478;51.094;7.030;2023-11-18T04:08:13;3.80;99.90
22623;DHT22;11478;51.094;7.030;2023-11-18T04:10:39;3.80;99.90
22623;DHT22;11478;51.094;7.030;2023-11-18T04:13:10;3.80;99.90
22623;DHT22;11478;51.094;7.030;2023-11-18T04:15:36;3.80;99.90
22623;DHT22;11478;51.094;7.030;2023-11-18T04:18:09;3.80;99.90
22623;DHT22;11478;51.094;7.030;2023-11-18T04:20:34;3.80;99.90
22623;DHT22;11478;51.094;7.030;2023-11-18T04:23:00;3.80;99.90
22623;DHT22;11478;51.094;7.030;2023-11-18T04:25:26;3.70;99.90
22623;DHT22;11478;51.094;7.030;2023-11-18T04:27:54;3.70;99.90
22623;DHT22;11478;51.094;7.030;2023-11-18T04:30:20;3.70;99.90
22623;DHT22;11478;51.094;7.030;2023-11-18T04:32:48;3.70;99.90
22623;DHT22;11478;51.094;7.030;2023-11-18T04:35:14;3.70;99.90
22623;DHT22;11478;51.094;7.030;2023-11-18T04:37:44;3.60;99.90
22623;DHT22;11478;51.094;7.030;2023-11-18T04:40:11;3.60;99.90
22623;DHT22;11478;51.094;7.030;2023-11-18T04:42:45;3.50;99.90
22623;DHT22;11478;51.094;7.030;2023-11-18T04:45:11;3.50;99.90
22623;DHT22;11478;51.094;7.030;2023-11-18T04:47:50;3.50;99.90
22623;DHT22;11478;51.094;7.030;2023-11-18T04:50:17;3.40;99.90
22623;DHT22;11478;51.094;7.030;2023-11-18T04:52:43;3.40;99.90
22623;DHT22;11478;51.094;7.030;2023-11-18T04:55:08;3.40;99.90
22623;DHT22;11478;51.094;7.030;2023-11-18T04:57:47;3.40;99.90
22623;DHT22;11478;51.094;7.030;2023-11-18T05:00:13;3.40;99.90
22623;DHT22;11478;51.094;7.030;2023-11-18T05:02:45;3.40;99.90
22623;DHT22;11478;51.094;7.030;2023-11-18T05:05:15;3.40;99.90
22623;DHT22;11478;51.094;7.030;2023-11-18T05:07:45;3.40;99.90
22623;DHT22;11478;51.094;7.030;2023-11-18T05:10:11;3.40;99.90
22623;DHT22;11478;51.094;7.030;2023-11-18T05:12:40;3.30;99.90
22623;DHT22;11478;51.094;7.030;2023-11-18T05:15:09;3.30;99.90
22623;DHT22;11478;51.094;7.030;2023-11-18T05:17:42;3.30;99.90
22623;DHT22;11478;51.094;7.030;2023-11-18T05:20:08;3.30;99.90
22623;DHT22;11478;51.094;7.030;2023-11-18T05:22:35;3.30;99.90
22623;DHT22;11478;51.094;7.030;2023-11-18T05:25:03;3.40;99.90
22623;DHT22;11478;51.094;7.030;2023-11-18T05:27:31;3.30;99.90
22623;DHT22;11478;51.094;7.030;2023-11-18T05:29:57;3.30;99.90
22623;DHT22;11478;51.094;7.030;2023-11-18T05:32:27;3.30;99.90
22623;DHT22;11478;51.094;7.030;2023-11-18T05:34:53;3.30;99.90
22623;DHT22;11478;51.094;7.030;2023-11-18T05:37:28;3.30;99.90
22623;DHT22;11478;51.094;7.030;2023-11-18T05:39:55;3.30;99.90
22623;DHT22;11478;51.094;7.030;2023-11-18T05:42:35;3.30;99.90
22623;DHT22;11478;51.094;7.030;2023-11-18T05:45:07;3.30;99.90
22623;DHT22;11478;51.094;7.030;2023-11-18T05:47:34;3.30;99.90
22623;DHT22;11478;51.094;7.030;2023-11-18T05:50:02;3.30;99.90
22623;DHT22;11478;51.094;7.030;2023-11-18T05:52:31;3.30;99.90
22623;DHT22;11478;51.094;7.030;2023-11-18T05:54:56;3.30;99.90
22623;DHT22;11478;51.094;7.030;2023-11-18T05:57:24;3.40;99.90
22623;DHT22;11478;51.094;7.030;2023-11-18T05:59:52;3.30;99.90
22623;DHT22;11478;51.094;7.030;2023-11-18T06:02:20;3.30;99.90
22623;DHT22;11478;51.094;7.030;2023-11-18T06:04:48;3.40;99.90
22623;DHT22;11478;51.094;7.030;2023-11-18T06:07:15;3.40;99.90
22623;DHT22;11478;51.094;7.030;2023-11-18T06:09:41;3.50;99.90
22623;DHT22;11478;51.094;7.030;2023-11-18T06:12:09;3.50;99.90
22623;DHT22;11478;51.094;7.030;2023-11-18T06:14:38;3.60;99.90
22623;DHT22;11478;51.094;7.030;2023-11-18T06:17:05;3.50;99.90
22623;DHT22;11478;51.094;7.030;2023-11-18T06:19:34;3.50;99.90
22623;DHT22;11478;51.094;7.030;2023-11-18T06:22:03;3.60;99.90
22623;DHT22;11478;51.094;7.030;2023-11-18T06:24:28;3.60;99.90
22623;DHT22;11478;51.094;7.030;2023-11-18T06:26:59;3.60;99.90
22623;DHT22;11478;51.094;7.030;2023-11-18T06:29:25;3.60;99.90
22623;DHT22;11478;51.094;7.030;2023-11-18T06:31:51;3.70;99.90
22623;DHT22;11478;51.094;7.030;2023-11-18T06:34:17;3.70;99.90
22623;DHT22;11478;51.094;7.030;2023-11-18T06:36:47;3.70;99.90
22623;DHT22;11478;51.094;7.030;2023-11-18T06:39:13;3.80;99.90
22623;DHT22;11478;51.094;7.030;2023-11-18T06:41:40;3.80;99.90
22623;DHT22;11478;51.094;7.030;2023-11-18T06:44:14;3.90;99.90
22623;DHT22;11478;51.094;7.030;2023-11-18T06:46:50;3.90;99.90
22623;DHT22;11478;51.094;7.030;2023-11-18T06:49:17;4.00;99.90
22623;DHT22;11478;51.094;7.030;2023-11-18T06:51:46;4.00;99.90
22623;DHT22;11478;51.094;7.030;2023-11-18T06:54:13;4.00;99.90
22623;DHT22;11478;51.094;7.030;2023-11-18T06:56:48;4.10;99.90
22623;DHT22;11478;51.094;7.030;2023-11-18T06:59:17;4.10;99.90
22623;DHT22;11478;51.094;7.030;2023-11-18T07:01:44;4.10;99.90
22623;DHT22;11478;51.094;7.030;2023-11-18T07:04:10;4.10;99.90
22623;DHT22;11478;51.094;7.030;2023-11-18T07:06:37;4.20;99.90
22623;DHT22;11478;51.094;7.030;2023-11-18T07:09:07;4.20;99.90
22623;DHT22;11478;51.094;7.030;2023-11-18T07:11:47;4.20;99.90
22623;DHT22;11478;51.094;7.030;2023-11-18T07:14:14;4.30;99.90
22623;DHT22;11478;51.094;7.030;2023-11-18T07:16:41;4.30;99.90
22623;DHT22;11478;51.094;7.030;2023-11-18T07:19:07;4.30;99.90
22623;DHT22;11478;51.094;7.030;2023-11-18T07:21:34;4.30;99.90
22623;DHT22;11478;51.094;7.030;2023-11-18T07:24:00;4.30;99.90
22623;DHT22;11478;51.094;7.030;2023-11-18T07:26:28;4.40;99.90
22623;DHT22;11478;51.094;7.030;2023-11-18T07:28:55;4.40;99.90
22623;DHT22;11478;51.094;7.030;2023-11-18T07:31:21;4.50;99.90
22623;DHT22;11478;51.094;7.030;2023-11-18T07:33:48;4.50;99.90
22623;DHT22;11478;51.094;7.030;2023-11-18T07:36:18;4.60;99.90
22623;DHT22;11478;51.094;7.030;2023-11-18T07:38:46;4.70;99.90
22623;DHT22;11478;51.094;7.030;2023-11-18T07:41:12;4.70;99.90
22623;DHT22;11478;51.094;7.030;2023-11-18T07:43:56;4.80;99.90
22623;DHT22;11478;51.094;7.030;2023-11-18T07:46:22;4.80;99.90
22623;DHT22;11478;51.094;7.030;2023-11-18T07:48:49;4.90;99.90
22623;DHT22;11478;51.094;7.030;2023-11-18T07:51:15;4.90;99.90
22623;DHT22;11478;51.094;7.030;2023-11-18T07:53:41;5.00;99.90
22623;DHT22;11478;51.094;7.030;2023-11-18T07:56:09;5.00;99.90
22623;DHT22;11478;51.094;7.030;2023-11-18T07:58:38;5.10;99.90
22623;DHT22;11478;51.094;7.030;2023-11-18T08:01:05;5.20;99.90
22623;DHT22;11478;51.094;7.030;2023-11-18T08:03:34;5.20;99.90
22623;DHT22;11478;51.094;7.030;2023-11-18T08:06:04;5.30;99.90
22623;DHT22;11478;51.094;7.030;2023-11-18T08:08:35;5.30;99.90
22623;DHT22;11478;51.094;7.030;2023-11-18T08:11:14;5.40;99.90
22623;DHT22;11478;51.094;7.030;2023-11-18T08:13:40;5.40;99.90
22623;DHT22;11478;51.094;7.030;2023-11-18T08:16:07;5.40;99.90
22623;DHT22;11478;51.094;7.030;2023-11-18T08:18:34;5.50;99.90
22623;DHT22;11478;51.094;7.030;2023-11-18T08:21:04;5.50;99.90
22623;DHT22;11478;51.094;7.030;2023-11-18T08:23:32;5.50;99.90
22623;DHT22;11478;51.094;7.030;2023-11-18T08:25:58;5.50;99.90
22623;DHT22;11478;51.094;7.030;2023-11-18T08:28:24;5.50;99.90
22623;DHT22;11478;51.094;7.030;2023-11-18T08:30:58;5.60;99.90
22623;DHT22;11478;51.094;7.030;2023-11-18T08:33:26;5.60;99.90
22623;DHT22;11478;51.094;7.030;2023-11-18T08:35:54;5.70;99.90
22623;DHT22;11478;51.094;7.030;2023-11-18T08:38:20;5.70;99.90
22623;DHT22;11478;51.094;7.030;2023-11-18T08:40:49;5.70;99.90
22623;DHT22;11478;51.094;7.030;2023-11-18T08:43:17;5.80;99.90
22623;DHT22;11478;51.094;7.030;2023-11-18T08:45:48;5.80;99.90
22623;DHT22;11478;51.094;7.030;2023-11-18T08:48:15;5.80;99.90
22623;DHT22;11478;51.094;7.030;2023-11-18T08:50:45;5.90;99.90
22623;DHT22;11478;51.094;7.030;2023-11-18T08:53:10;5.90;99.90
22623;DHT22;11478;51.094;7.030;2023-11-18T08:55:53;6.00;99.90
22623;DHT22;11478;51.094;7.030;2023-11-18T08:58:21;6.00;99.90
22623;DHT22;11478;51.094;7.030;2023-11-18T09:01:01;6.10;99.90
22623;DHT22;11478;51.094;7.030;2023-11-18T09:03:40;6.10;99.90
22623;DHT22;11478;51.094;7.030;2023-11-18T09:06:18;6.10;99.90
22623;DHT22;11478;51.094;7.030;2023-11-18T09:08:48;6.10;99.90
22623;DHT22;11478;51.094;7.030;2023-11-18T09:11:22;6.20;99.90
22623;DHT22;11478;51.094;7.030;2023-11-18T09:13:51;6.20;99.90
22623;DHT22;11478;51.094;7.030;2023-11-18T09:16:20;6.20;99.90
22623;DHT22;11478;51.094;7.030;2023-11-18T09:18:57;6.20;99.90
22623;DHT22;11478;51.094;7.030;2023-11-18T09:21:28;6.30;99.90
22623;DHT22;11478;51.094;7.030;2023-11-18T09:23:58;6.30;99.90
22623;DHT22;11478;51.094;7.030;2023-11-18T09:26:24;6.40;99.90
22623;DHT22;11478;51.094;7.030;2023-11-18T09:28:51;6.40;99.90
22623;DHT22;11478;51.094;7.030;2023-11-18T09:31:18;6.50;99.90
22623;DHT22;11478;51.094;7.030;2023-11-18T09:33:45;6.50;99.90
22623;DHT22;11478;51.094;7.030;2023-11-18T09:36:18;6.60;99.90
22623;DHT22;11478;51.094;7.030;2023-11-18T09:38:45;6.60;99.90
22623;DHT22;11478;51.094;7.030;2023-11-18T09:41:15;6.60;99.90
22623;DHT22;11478;51.094;7.030;2023-11-18T09:43:44;6.60;99.90
22623;DHT22;11478;51.094;7.030;2023-11-18T09:46:15;6.70;99.90
22623;DHT22;11478;51.094;7.030;2023-11-18T09:48:44;6.60;99.90
22623;DHT22;11478;51.094;7.030;2023-11-18T09:51:23;6.60;99.90
22623;DHT22;11478;51.094;7.030;2023-11-18T09:53:54;6.70;99.90
22623;DHT22;11478;51.094;7.030;2023-11-18T09:56:31;6.70;99.90
22623;DHT22;11478;51.094;7.030;2023-11-18T09:59:16;6.70;99.90
22623;DHT22;11478;51.094;7.030;2023-11-18T10:02:12;6.80;99.90
22623;DHT22;11478;51.094;7.030;2023-11-18T10:04:39;6.80;99.90
22623;DHT22;11478;51.094;7.030;2023-11-18T10:07:08;6.90;99.90
22623;DHT22;11478;51.094;7.030;2023-11-18T10:09:39;6.90;99.90
22623;DHT22;11478;51.094;7.030;2023-11-18T10:12:07;7.00;99.90
22623;DHT22;11478;51.094;7.030;2023-11-18T10:14:40;7.00;99.90
22623;DHT22;11478;51.094;7.030;2023-11-18T10:17:16;7.00;99.90
22623;DHT22;11478;51.094;7.030;2023-11-18T10:20:15;7.00;99.90
22623;DHT22;11478;51.094;7.030;2023-11-18T10:22:41;7.10;99.90
22623;DHT22;11478;51.094;7.030;2023-11-18T10:25:07;7.00;99.90
22623;DHT22;11478;51.094;7.030;2023-11-18T10:27:34;7.10;99.90
22623;DHT22;11478;51.094;7.030;2023-11-18T10:30:04;7.10;99.90
22623;DHT22;11478;51.094;7.030;2023-11-18T10:32:32;7.20;99.90
22623;DHT22;11478;51.094;7.030;2023-11-18T10:35:04;7.20;99.90
22623;DHT22;11478;51.094;7.030;2023-11-18T10:37:33;7.20;99.90
22623;DHT22;11478;51.094;7.030;2023-11-18T10:40:09;7.30;99.90
22623;DHT22;11478;51.094;7.030;2023-11-18T10:42:39;7.30;99.90
22623;DHT22;11478;51.094;7.030;2023-11-18T10:45:23;7.30;99.90
22623;DHT22;11478;51.094;7.030;2023-11-18T10:47:50;7.30;99.90
22623;DHT22;11478;51.094;7.030;2023-11-18T10:50:22;7.40;99.90
22623;DHT22;11478;51.094;7.030;2023-11-18T10:52:48;7.40;99.90
22623;DHT22;11478;51.094;7.030;2023-11-18T10:55:21;7.40;99.90
22623;DHT22;11478;51.094;7.030;2023-11-18T10:57:47;7.40;99.90
22623;DHT22;11478;51.094;7.030;2023-11-18T11:00:20;7.40;99.90
22623;DHT22;11478;51.094;7.030;2023-11-18T11:02:46;7.40;99.90
22623;DHT22;11478;51.094;7.030;2023-11-18T11:05:28;7.40;99.90
22623;DHT22;11478;51.094;7.030;2023-11-18T11:08:01;7.40;99.90
22623;DHT22;11478;51.094;7.030;2023-11-18T11:10:30;7.40;99.90
22623;DHT22;11478;51.094;7.030;2023-11-18T11:13:01;7.40;99.90
22623;DHT22;11478;51.094;7.030;2023-11-18T11:15:44;7.40;99.90
22623;DHT22;11478;51.094;7.030;2023-11-18T11:18:12;7.50;99.90
22623;DHT22;11478;51.094;7.030;2023-11-18T11:21:13;7.50;99.90
22623;DHT22;11478;51.094;7.030;2023-11-18T11:29:42;7.50;99.90
22623;DHT22;11478;51.094;7.030;2023-11-18T11:32:42;7.50;99.90
22623;DHT22;11478;51.094;7.030;2023-11-18T11:35:23;7.60;99.90
22623;DHT22;11478;51.094;7.030;2023-11-18T11:37:54;7.60;99.90
22623;DHT22;11478;51.094;7.030;2023-11-18T11:40:42;7.60;99.90
22623;DHT22;11478;51.094;7.030;2023-11-18T11:43:12;7.50;99.90
22623;DHT22;11478;51.094;7.030;2023-11-18T11:45:50;7.50;99.90
22623;DHT22;11478;51.094;7.030;2023-11-18T11:48:18;7.50;99.90
22623;DHT22;11478;51.094;7.030;2023-11-18T11:51:35;7.60;99.90
22623;DHT22;11478;51.094;7.030;2023-11-18T11:54:18;7.50;99.90
22623;DHT22;11478;51.094;7.030;2023-11-18T11:56:48;7.50;99.90
22623;DHT22;11478;51.094;7.030;2023-11-18T12:02:34;7.50;99.90
22623;DHT22;11478;51.094;7.030;2023-11-18T12:05:01;7.50;99.90
22623;DHT22;11478;51.094;7.030;2023-11-18T12:07:32;7.50;99.90
22623;DHT22;11478;51.094;7.030;2023-11-18T12:10:08;7.50;99.90
22623;DHT22;11478;51.094;7.030;2023-11-18T12:12:39;7.60;99.90
22623;DHT22;11478;51.094;7.030;2023-11-18T12:18:39;7.60;99.90
22623;DHT22;11478;51.094;7.030;2023-11-18T12:21:05;7.60;99.90
22623;DHT22;11478;51.094;7.030;2023-11-18T12:24:29;7.60;99.90
22623;DHT22;11478;51.094;7.030;2023-11-18T12:27:02;7.60;99.90
22623;DHT22;11478;51.094;7.030;2023-11-18T12:29:41;7.60;99.90
22623;DHT22;11478;51.094;7.030;2023-11-18T12:35:26;7.60;99.90
22623;DHT22;11478;51.094;7.030;2023-11-18T12:43:53;7.50;99.90
22623;DHT22;11478;51.094;7.030;2023-11-18T12:49:38;7.50;99.90
22623;DHT22;11478;51.094;7.030;2023-11-18T12:52:08;7.50;99.90
22623;DHT22;11478;51.094;7.030;2023-11-18T12:54:34;7.50;99.90
22623;DHT22;11478;51.094;7.030;2023-11-18T12:57:04;7.50;99.90
22623;DHT22;11478;51.094;7.030;2023-11-18T12:59:47;7.50;99.90
22623;DHT22;11478;51.094;7.030;2023-11-18T13:02:23;7.60;99.90
22623;DHT22;11478;51.094;7.030;2023-11-18T13:04:49;7.50;99.90
22623;DHT22;11478;51.094;7.030;2023-11-18T13:07:17;7.50;99.90
22623;DHT22;11478;51.094;7.030;2023-11-18T13:09:44;7.50;99.90
22623;DHT22;11478;51.094;7.030;2023-11-18T13:12:15;7.60;99.90
22623;DHT22;11478;51.094;7.030;2023-11-18T13:14:42;7.60;99.90
22623;DHT22;11478;51.094;7.030;2023-11-18T13:17:19;7.60;99.90
22623;DHT22;11478;51.094;7.030;2023-11-18T13:19:50;7.60;99.90
22623;DHT22;11478;51.094;7.030;2023-11-18T13:22:20;7.60;99.90
22623;DHT22;11478;51.094;7.030;2023-11-18T13:24:47;7.60;99.90
22623;DHT22;11478;51.094;7.030;2023-11-18T13:27:16;7.60;99.90
22623;DHT22;11478;51.094;7.030;2023-11-18T13:29:47;7.60;99.90
22623;DHT22;11478;51.094;7.030;2023-11-18T13:32:18;7.60;99.90
22623;DHT22;11478;51.094;7.030;2023-11-18T13:34:48;7.60;99.90
22623;DHT22;11478;51.094;7.030;2023-11-18T13:37:14;7.60;99.90
22623;DHT22;11478;51.094;7.030;2023-11-18T13:39:43;7.60;99.90
22623;DHT22;11478;51.094;7.030;2023-11-18T13:42:20;7.60;99.90
22623;DHT22;11478;51.094;7.030;2023-11-18T13:44:48;7.60;99.90
22623;DHT22;11478;51.094;7.030;2023-11-18T13:47:27;7.60;99.90
22623;DHT22;11478;51.094;7.030;2023-11-18T13:50:06;7.60;99.90
22623;DHT22;11478;51.094;7.030;2023-11-18T13:52:35;7.60;99.90
22623;DHT22;11478;51.094;7.030;2023-11-18T13:55:08;7.70;99.90
22623;DHT22;11478;51.094;7.030;2023-11-18T13:57:35;7.70;99.90
22623;DHT22;11478;51.094;7.030;2023-11-18T14:00:08;7.70;99.90
22623;DHT22;11478;51.094;7.030;2023-11-18T14:02:46;7.70;99.90
22623;DHT22;11478;51.094;7.030;2023-11-18T14:05:17;7.70;99.90
22623;DHT22;11478;51.094;7.030;2023-11-18T14:07:47;7.70;99.90
22623;DHT22;11478;51.094;7.030;2023-11-18T14:10:14;7.70;99.90
22623;DHT22;11478;51.094;7.030;2023-11-18T14:12:58;7.70;99.90
22623;DHT22;11478;51.094;7.030;2023-11-18T14:15:24;7.70;99.90
22623;DHT22;11478;51.094;7.030;2023-11-18T14:21:48;7.70;99.90
22623;DHT22;11478;51.094;7.030;2023-11-18T14:24:27;7.80;99.90
22623;DHT22;11478;51.094;7.030;2023-11-18T14:26:57;7.70;99.90
22623;DHT22;11478;51.094;7.030;2023-11-18T14:29:37;7.80;99.90
22623;DHT22;11478;51.094;7.030;2023-11-18T14:32:06;7.80;99.90
22623;DHT22;11478;51.094;7.030;2023-11-18T14:34:40;7.80;99.90
22623;DHT22;11478;51.094;7.030;2023-11-18T14:37:07;7.70;99.90
22623;DHT22;11478;51.094;7.030;2023-11-18T14:39:39;7.70;99.90
22623;DHT22;11478;51.094;7.030;2023-11-18T14:42:09;7.70;99.90
22623;DHT22;11478;51.094;7.030;2023-11-18T14:44:44;7.70;99.90
22623;DHT22;11478;51.094;7.030;2023-11-18T14:47:10;7.70;99.90
22623;DHT22;11478;51.094;7.030;2023-11-18T14:49:37;7.70;99.90
22623;DHT22;11478;51.094;7.030;2023-11-18T14:52:37;7.60;99.90
22623;DHT22;11478;51.094;7.030;2023-11-18T14:55:30;7.70;99.90
22623;DHT22;11478;51.094;7.030;2023-11-18T14:57:56;7.70;99.90
22623;DHT22;11478;51.094;7.030;2023-11-18T15:00:25;7.60;99.90
22623;DHT22;11478;51.094;7.030;2023-11-18T15:02:53;7.60;99.90
22623;DHT22;11478;51.094;7.030;2023-11-18T15:05:38;7.50;99.90
22623;DHT22;11478;51.094;7.030;2023-11-18T15:08:10;7.50;99.90
22623;DHT22;11478;51.094;7.030;2023-11-18T15:10:40;7.50;99.90
22623;DHT22;11478;51.094;7.030;2023-11-18T15:13:22;7.50;99.90
22623;DHT22;11478;51.094;7.030;2023-11-18T15:16:14;7.40;99.90
22623;DHT22;11478;51.094;7.030;2023-11-18T15:18:42;7.40;99.90
22623;DHT22;11478;51.094;7.030;2023-11-18T15:21:17;7.30;99.90
22623;DHT22;11478;51.094;7.030;2023-11-18T15:23:44;7.30;99.90
22623;DHT22;11478;51.094;7.030;2023-11-18T15:26:18;7.30;99.90
22623;DHT22;11478;51.094;7.030;2023-11-18T15:28:44;7.30;99.90
22623;DHT22;11478;51.094;7.030;2023-11-18T15:31:10;7.30;99.90
22623;DHT22;11478;51.094;7.030;2023-11-18T15:33:39;7.30;99.90
22623;DHT22;11478;51.094;7.030;2023-11-18T15:36:12;7.30;99.90
22623;DHT22;11478;51.094;7.030;2023-11-18T15:38:41;7.30;99.90
22623;DHT22;11478;51.094;7.030;2023-11-18T15:41:09;7.30;99.90
22623;DHT22;11478;51.094;7.030;2023-11-18T15:43:45;7.20;99.90
22623;DHT22;11478;51.094;7.030;2023-11-18T15:46:11;7.20;99.90
22623;DHT22;11478;51.094;7.030;2023-11-18T15:48:37;7.20;99.90
22623;DHT22;11478;51.094;7.030;2023-11-18T15:51:03;7.20;99.90
22623;DHT22;11478;51.094;7.030;2023-11-18T15:53:29;7.20;99.90
22623;DHT22;11478;51.094;7.030;2023-11-18T15:55:55;7.20;99.90
22623;DHT22;11478;51.094;7.030;2023-11-18T15:58:21;7.20;99.90
22623;DHT22;11478;51.094;7.030;2023-11-18T16:00:57;7.20;99.90
22623;DHT22;11478;51.094;7.030;2023-11-18T16:03:24;7.20;99.90
22623;DHT22;11478;51.094;7.030;2023-11-18T16:09:00;7.20;99.90
22623;DHT22;11478;51.094;7.030;2023-11-18T16:11:27;7.20;99.90
22623;DHT22;11478;51.094;7.030;2023-11-18T16:14:16;7.20;99.90
22623;DHT22;11478;51.094;7.030;2023-11-18T16:16:42;7.20;99.90
22623;DHT22;11478;51.094;7.030;2023-11-18T16:19:11;7.20;99.90
22623;DHT22;11478;51.094;7.030;2023-11-18T16:21:40;7.20;99.90
22623;DHT22;11478;51.094;7.030;2023-11-18T16:24:11;7.20;99.90
22623;DHT22;11478;51.094;7.030;2023-11-18T16:26:39;7.20;99.90
22623;DHT22;11478;51.094;7.030;2023-11-18T16:29:14;7.20;99.90
22623;DHT22;11478;51.094;7.030;2023-11-18T16:31:43;7.20;99.90
22623;DHT22;11478;51.094;7.030;2023-11-18T16:34:09;7.20;99.90
22623;DHT22;11478;51.094;7.030;2023-11-18T16:36:44;7.20;99.90
22623;DHT22;11478;51.094;7.030;2023-11-18T16:39:10;7.20;99.90